Creil, France

7:41 PM CET on February 07, 2016 (GMT +0100)
Creil Air Base | | Change Station
CLOSE
Current Station
Airport
Location: Creil,
Elevation: 289 ft
Nearby Weather Stations

Elev 289 ft 49.25 °N, 2.52 °E | Updated 11 minutes ago

Mostly Cloudy
Mostly Cloudy
48 °F
Feels Like 48 °F
N
15
Wind Variable Wind from SSW

Today
High -- | Low -- °F
--% Chance of Precip.
Yesterday
High -- | Low -- °F
Precip. -- in
Pressure 29.68 in
Visibility 6.2 miles
Clouds Scattered Clouds 4700 ft
Scattered Clouds 5400 ft
Mostly Cloudy 13000 ft
Dew Point 36 °F
Humidity 62%
Rainfall 0.00 in
Snow Depth Not available.
8:13 AM 5:55 PM
Waning Crescent, 1% visible
METAR LFPC 071830Z AUTO 20013KT 9999 SCT047 SCT054 BKN130 09/02 Q1005
Pressure 29.68 in
Visibility 6.2 miles
Clouds Scattered Clouds 4700 ft
Scattered Clouds 5400 ft
Mostly Cloudy 13000 ft
Dew Point 36 °F
Humidity 62%
Rainfall 0.00 in
Snow Depth Not available.
8:13 AM 5:55 PM
Waning Crescent, 1% visible
METAR LFPC 071830Z AUTO 20013KT 9999 SCT047 SCT054 BKN130 09/02 Q1005

10-Day Weather Forecast

Almanac

Astronomy

Feb. 07, 2016 Rise Set
Actual Time
Civil Twilight
Nautical Twilight
Astronomical Twilight
Moon
Length of Visible Light
Length of Day
Tomorrow will be .
, % of the Moon is Illuminated

Today's Extremes

Country Highs Country Lows

Community

WunderPhotos

Upload Photos

1,891,280 photos uploaded!

WunderBlog® & News

Nearby

Air Quality

  Air Quality AQ Index Pollutant
Not available.

Snow Depth

Station Depth Elevation

Earthquake Activity

City Distance Mag. Time & Date
Minimum magnitude displayed is 2.5.

Coastal Water Temperatures

Place Temperature

Stations

Nearby Weather Stations

Station Location Temp. Windchill Dew Point Humidity Wind Precip. Elev Updated Type